createdAt,value
2022-12-20T00:01:34.667Z,19.93
2022-12-20T00:04:05.672Z,15.47
2022-12-20T00:06:35.074Z,14.30
2022-12-20T00:09:03.546Z,16.33
2022-12-20T00:11:31.447Z,17.00
2022-12-20T00:13:59.401Z,14.93
2022-12-20T00:16:28.721Z,17.57
2022-12-20T00:18:59.378Z,16.57
2022-12-20T00:21:27.426Z,16.73
2022-12-20T00:23:55.437Z,16.03
2022-12-20T00:26:27.884Z,17.17
2022-12-20T00:28:55.668Z,15.90
2022-12-20T00:31:25.273Z,14.87
2022-12-20T00:33:54.534Z,15.57
2022-12-20T00:36:23.197Z,16.13
2022-12-20T00:38:51.940Z,18.43
2022-12-20T00:41:21.999Z,16.47
2022-12-20T00:43:49.976Z,15.70
2022-12-20T00:46:19.079Z,15.93
2022-12-20T00:48:46.018Z,11.90
2022-12-20T00:51:15.413Z,13.60
2022-12-20T00:53:43.076Z,14.03
2022-12-20T00:56:10.878Z,15.63
2022-12-20T00:58:42.942Z,14.67
2022-12-20T01:01:19.462Z,16.33
2022-12-20T01:03:47.531Z,16.03
2022-12-20T01:06:15.071Z,16.00
2022-12-20T01:08:42.419Z,14.60
2022-12-20T01:11:23.075Z,15.43
2022-12-20T01:13:52.741Z,14.83
2022-12-20T01:16:27.972Z,11.37
2022-12-20T01:18:55.276Z,16.47
2022-12-20T01:21:26.416Z,13.87
2022-12-20T01:23:56.388Z,14.83
2022-12-20T01:26:27.527Z,16.57
2022-12-20T01:28:59.884Z,13.77
2022-12-20T01:31:28.334Z,13.67
2022-12-20T01:33:55.377Z,16.10
2022-12-20T01:36:26.795Z,14.70
2022-12-20T01:39:06.111Z,14.30
2022-12-20T01:41:34.688Z,16.87
2022-12-20T01:44:05.624Z,12.53
2022-12-20T01:46:36.207Z,11.10
2022-12-20T01:49:12.239Z,12.13
2022-12-20T01:52:09.515Z,16.10
2022-12-20T01:54:41.084Z,14.90
2022-12-20T01:57:13.835Z,13.43
2022-12-20T01:59:42.816Z,14.87
2022-12-20T02:02:12.392Z,15.23
2022-12-20T02:04:40.167Z,14.47
2022-12-20T02:07:11.247Z,14.10
2022-12-20T02:09:38.887Z,9.90
2022-12-20T02:12:16.242Z,13.87
2022-12-20T02:15:09.722Z,14.20
2022-12-20T02:17:46.403Z,12.70
2022-12-20T02:20:45.410Z,14.53
2022-12-20T02:23:31.538Z,14.53
2022-12-20T02:26:13.909Z,11.53
2022-12-20T02:29:02.148Z,13.67
2022-12-20T02:31:57.807Z,9.30
2022-12-20T02:34:26.103Z,11.13
2022-12-20T02:36:53.275Z,12.33
2022-12-20T02:39:22.814Z,13.93
2022-12-20T02:41:57.748Z,15.20
2022-12-20T02:44:47.441Z,13.50
2022-12-20T02:47:32.857Z,14.17
2022-12-20T02:50:01.051Z,12.67
2022-12-20T02:52:31.153Z,9.87
2022-12-20T02:55:00.027Z,11.27
2022-12-20T02:57:33.108Z,11.70
2022-12-20T03:00:12.523Z,12.97
2022-12-20T03:03:02.056Z,11.93
2022-12-20T03:05:29.302Z,11.77
2022-12-20T03:07:56.403Z,9.83
2022-12-20T03:10:23.331Z,12.40
2022-12-20T03:12:55.829Z,12.87
2022-12-20T03:15:23.921Z,11.70
2022-12-20T03:17:51.710Z,13.33
2022-12-20T03:20:18.699Z,11.27
2022-12-20T03:22:45.715Z,12.97
2022-12-20T03:25:14.170Z,10.23
2022-12-20T03:27:42.128Z,14.30
2022-12-20T03:30:10.474Z,13.53
2022-12-20T03:32:37.472Z,12.93
2022-12-20T03:35:04.931Z,11.43
2022-12-20T03:37:32.078Z,12.37
2022-12-20T03:39:59.116Z,13.03
2022-12-20T03:42:26.068Z,12.13
2022-12-20T03:44:54.122Z,12.63
2022-12-20T03:47:21.255Z,14.10
2022-12-20T03:49:51.993Z,12.50
2022-12-20T03:52:18.983Z,13.93
2022-12-20T03:54:46.013Z,12.67
2022-12-20T03:57:12.902Z,13.20
2022-12-20T03:59:41.758Z,12.37
2022-12-20T04:02:10.280Z,13.20
2022-12-20T04:04:38.330Z,13.27
2022-12-20T04:07:05.177Z,12.77
2022-12-20T04:09:32.026Z,10.63
2022-12-20T04:11:58.953Z,13.03
2022-12-20T04:14:26.025Z,15.40
2022-12-20T04:16:54.962Z,12.57
2022-12-20T04:19:21.906Z,13.30
2022-12-20T04:21:50.300Z,12.37
2022-12-20T04:24:17.431Z,13.53
2022-12-20T04:26:44.211Z,12.77
2022-12-20T04:29:10.994Z,12.77
2022-12-20T04:31:37.827Z,13.93
2022-12-20T04:34:04.688Z,12.33
2022-12-20T04:36:31.465Z,12.53
2022-12-20T04:38:58.234Z,12.63
2022-12-20T04:41:27.074Z,11.53
2022-12-20T04:43:58.234Z,12.43
2022-12-20T04:46:27.030Z,13.60
2022-12-20T04:48:57.816Z,13.33
2022-12-20T04:51:25.608Z,11.57
2022-12-20T04:53:52.432Z,11.70
2022-12-20T04:56:29.859Z,13.97
2022-12-20T04:58:58.960Z,13.53
2022-12-20T05:01:26.413Z,11.73
2022-12-20T05:03:53.689Z,12.70
2022-12-20T05:06:20.727Z,12.40
2022-12-20T05:08:47.851Z,12.67
2022-12-20T05:11:14.860Z,11.67
2022-12-20T05:13:42.010Z,13.40
2022-12-20T05:16:10.157Z,13.20
2022-12-20T05:18:48.881Z,12.43
2022-12-20T05:21:35.582Z,13.03
2022-12-20T05:24:21.230Z,12.60
2022-12-20T05:26:48.097Z,12.93
2022-12-20T05:29:16.842Z,12.43
2022-12-20T05:31:47.536Z,12.63
2022-12-20T05:34:17.652Z,13.70
2022-12-20T05:36:44.668Z,11.87
2022-12-20T05:39:14.712Z,11.13
2022-12-20T05:41:41.759Z,14.20
2022-12-20T05:44:10.719Z,13.17
2022-12-20T05:46:38.829Z,11.87
2022-12-20T05:49:12.979Z,13.37
2022-12-20T05:51:39.829Z,14.57
2022-12-20T05:54:07.011Z,12.80
2022-12-20T05:56:39.339Z,12.73
2022-12-20T05:59:06.167Z,12.37
2022-12-20T06:01:33.618Z,12.63
2022-12-20T06:04:03.682Z,13.70
2022-12-20T06:06:31.609Z,13.33
2022-12-20T06:08:58.345Z,11.07
2022-12-20T06:11:29.934Z,13.57
2022-12-20T06:13:57.250Z,12.43
2022-12-20T06:16:24.076Z,13.53
2022-12-20T06:18:51.074Z,13.03
2022-12-20T06:21:18.112Z,13.33
2022-12-20T06:23:44.957Z,12.33
2022-12-20T06:26:15.517Z,12.97
2022-12-20T06:28:42.972Z,13.23
2022-12-20T06:31:11.513Z,13.07
2022-12-20T06:33:39.402Z,12.43
2022-12-20T06:36:14.141Z,13.03
2022-12-20T06:38:41.299Z,12.17
2022-12-20T06:41:08.170Z,13.37
2022-12-20T06:43:42.097Z,11.70
2022-12-20T06:46:09.321Z,13.57
2022-12-20T06:48:36.372Z,12.43
2022-12-20T06:51:05.499Z,12.93
2022-12-20T06:53:32.690Z,12.67
2022-12-20T06:55:59.648Z,13.40
2022-12-20T06:58:29.708Z,13.50
2022-12-20T07:00:56.847Z,12.80
2022-12-20T07:03:23.677Z,12.90
2022-12-20T07:05:55.492Z,11.87
2022-12-20T07:08:23.915Z,13.03
2022-12-20T07:10:57.049Z,11.97
2022-12-20T07:13:24.904Z,11.60
2022-12-20T07:16:02.197Z,13.97
2022-12-20T07:18:31.596Z,12.90
2022-12-20T07:21:03.288Z,12.00
2022-12-20T07:23:30.259Z,12.53
2022-12-20T07:25:59.588Z,10.57
2022-12-20T07:28:27.680Z,11.47
2022-12-20T07:30:55.101Z,12.57
2022-12-20T07:33:21.927Z,12.10
2022-12-20T07:35:54.177Z,12.87
2022-12-20T07:38:21.530Z,12.97
2022-12-20T07:40:48.308Z,12.00
2022-12-20T07:43:15.091Z,14.20
2022-12-20T07:45:41.884Z,13.23
2022-12-20T07:48:13.731Z,13.33
2022-12-20T07:50:42.709Z,13.27
2022-12-20T07:53:10.836Z,12.27
2022-12-20T07:55:40.367Z,13.23
2022-12-20T07:58:09.632Z,12.77
2022-12-20T08:00:38.598Z,13.77
2022-12-20T08:03:11.805Z,13.23
2022-12-20T08:05:42.761Z,13.90
2022-12-20T08:08:09.974Z,13.73
2022-12-20T08:10:39.506Z,11.47
2022-12-20T08:13:08.188Z,13.00
2022-12-20T08:15:37.525Z,11.57
2022-12-20T08:18:06.241Z,12.67
2022-12-20T08:20:33.885Z,14.00
2022-12-20T08:23:07.443Z,13.07
2022-12-20T08:25:41.171Z,13.57
2022-12-20T08:28:09.066Z,12.97
2022-12-20T08:30:36.198Z,12.97
2022-12-20T08:33:02.999Z,13.23
2022-12-20T08:35:35.848Z,13.60
2022-12-20T08:38:02.689Z,13.63
2022-12-20T08:40:29.719Z,14.57
2022-12-20T08:42:56.554Z,14.60
2022-12-20T08:45:23.383Z,15.77
2022-12-20T08:47:50.371Z,14.03
2022-12-20T08:50:17.292Z,13.60
2022-12-20T08:52:44.341Z,14.10
2022-12-20T08:55:13.390Z,15.00
2022-12-20T08:57:40.183Z,15.47
2022-12-20T09:00:09.647Z,14.33
2022-12-20T09:02:38.593Z,14.10
2022-12-20T09:05:06.262Z,13.97
2022-12-20T09:07:33.087Z,14.30
2022-12-20T09:09:59.905Z,14.60
2022-12-20T09:12:26.792Z,14.50
2022-12-20T09:14:57.630Z,13.10
2022-12-20T09:17:30.199Z,15.23
2022-12-20T09:19:57.130Z,14.93
2022-12-20T09:22:23.937Z,15.23
2022-12-20T09:24:50.844Z,14.43
2022-12-20T09:27:23.408Z,14.33
2022-12-20T09:29:50.390Z,14.73
2022-12-20T09:32:17.210Z,14.97
2022-12-20T09:34:51.202Z,14.30
2022-12-20T09:37:21.433Z,20.10
2022-12-20T09:39:55.813Z,18.40
2022-12-20T09:42:30.246Z,17.10
2022-12-20T09:45:08.615Z,17.57
2022-12-20T09:47:37.050Z,18.63
2022-12-20T09:50:06.248Z,16.53
2022-12-20T09:53:18.452Z,15.77
2022-12-20T09:56:18.974Z,15.57
2022-12-20T09:59:03.398Z,15.63
2022-12-20T10:01:40.404Z,16.33
2022-12-20T10:04:19.102Z,15.93
2022-12-20T10:07:01.803Z,13.17
2022-12-20T10:09:40.517Z,14.60
2022-12-20T10:12:25.377Z,15.83
2022-12-20T10:15:11.440Z,16.47
2022-12-20T10:18:00.974Z,15.97
2022-12-20T10:21:09.709Z,17.23
2022-12-20T10:24:01.886Z,18.90
2022-12-20T10:26:34.541Z,16.70
2022-12-20T10:29:21.281Z,15.60
2022-12-20T10:32:01.010Z,16.40
2022-12-20T10:34:34.923Z,15.17
2022-12-20T10:37:16.440Z,16.17
2022-12-20T10:39:47.976Z,17.90
2022-12-20T10:42:38.657Z,17.43
2022-12-20T10:45:23.533Z,20.37
2022-12-20T10:47:58.135Z,17.33
2022-12-20T10:50:31.646Z,20.53
2022-12-20T10:53:22.047Z,17.00
2022-12-20T10:56:09.935Z,14.80
2022-12-20T10:58:38.465Z,15.10
2022-12-20T11:01:13.378Z,15.23
2022-12-20T11:03:54.481Z,16.00
2022-12-20T11:06:29.811Z,16.07
2022-12-20T11:09:33.505Z,15.13
2022-12-20T11:12:16.640Z,16.33
2022-12-20T11:14:45.964Z,14.33
2022-12-20T11:17:27.397Z,15.13
2022-12-20T11:20:21.856Z,16.63
2022-12-20T11:23:26.409Z,16.57
2022-12-20T11:26:22.445Z,15.00
2022-12-20T11:29:27.713Z,17.33
2022-12-20T11:32:27.587Z,16.20
2022-12-20T11:35:00.893Z,15.20
2022-12-20T11:37:39.152Z,15.10
2022-12-20T11:40:15.290Z,17.93
2022-12-20T11:43:15.646Z,17.03
2022-12-20T11:45:45.254Z,17.03
2022-12-20T11:48:27.480Z,22.33
2022-12-20T11:51:46.695Z,19.07
2022-12-20T11:54:29.895Z,16.50
2022-12-20T11:57:04.824Z,16.27
2022-12-20T11:59:58.508Z,18.47
2022-12-20T12:02:33.514Z,17.27
2022-12-20T12:05:07.197Z,15.87
2022-12-20T12:07:36.643Z,17.47
2022-12-20T12:10:32.173Z,17.17
2022-12-20T12:13:25.894Z,17.73
2022-12-20T12:16:11.354Z,15.33
2022-12-20T12:18:39.539Z,18.50
2022-12-20T12:21:26.099Z,17.57
2022-12-20T12:24:21.930Z,16.50
2022-12-20T12:26:48.998Z,17.97
2022-12-20T12:29:17.470Z,17.87
2022-12-20T12:31:55.952Z,17.93
2022-12-20T12:34:53.499Z,16.67
2022-12-20T12:37:44.645Z,17.90
2022-12-20T12:40:35.991Z,17.00
2022-12-20T12:43:17.800Z,17.87
2022-12-20T12:45:48.069Z,18.10
2022-12-20T12:48:26.859Z,18.67
2022-12-20T12:50:56.991Z,19.30
2022-12-20T12:53:32.762Z,18.60
2022-12-20T12:56:46.671Z,19.77
2022-12-20T12:59:24.190Z,20.07
2022-12-20T13:02:22.991Z,21.33
2022-12-20T13:04:59.887Z,18.03
2022-12-20T13:07:29.218Z,19.33
2022-12-20T13:09:57.818Z,17.90
2022-12-20T13:12:37.825Z,17.20
2022-12-20T13:15:20.803Z,18.00
2022-12-20T13:18:01.461Z,18.77
2022-12-20T13:20:33.501Z,19.03
2022-12-20T13:23:17.963Z,18.23
2022-12-20T13:25:51.924Z,18.80
2022-12-20T13:28:25.840Z,17.07
2022-12-20T13:31:04.606Z,16.93
2022-12-20T13:33:42.487Z,18.07
2022-12-20T13:36:12.520Z,18.20
2022-12-20T13:38:48.206Z,17.30
2022-12-20T13:41:34.832Z,17.97
2022-12-20T13:44:20.798Z,17.67
2022-12-20T13:47:03.942Z,18.47
2022-12-20T13:49:43.738Z,17.43
2022-12-20T13:52:34.071Z,18.87
2022-12-20T13:55:15.865Z,17.33
2022-12-20T13:57:49.133Z,17.77
2022-12-20T14:00:25.852Z,18.00
2022-12-20T14:02:54.572Z,17.80
2022-12-20T14:05:26.762Z,19.07
2022-12-20T14:08:05.663Z,18.53
2022-12-20T14:10:34.653Z,18.43
2022-12-20T14:13:01.783Z,18.73
2022-12-20T14:15:32.297Z,18.53
2022-12-20T14:18:07.290Z,19.30
2022-12-20T14:20:37.419Z,18.10
2022-12-20T14:23:09.625Z,19.50
2022-12-20T14:25:44.333Z,19.13
2022-12-20T14:28:27.105Z,18.60
2022-12-20T14:30:55.531Z,19.93
2022-12-20T14:33:35.492Z,18.47
2022-12-20T14:36:23.290Z,18.50
2022-12-20T14:38:53.817Z,19.27
2022-12-20T14:41:35.142Z,19.47
2022-12-20T14:44:06.945Z,19.70
2022-12-20T14:46:36.133Z,19.03
2022-12-20T14:49:26.701Z,20.20
2022-12-20T14:52:12.323Z,19.83
2022-12-20T14:55:11.188Z,18.90
2022-12-20T14:57:44.579Z,20.70
2022-12-20T15:00:32.325Z,20.17
2022-12-20T15:03:23.104Z,20.57
2022-12-20T15:05:56.053Z,19.90
2022-12-20T15:08:28.416Z,20.90
2022-12-20T15:11:11.011Z,20.93
2022-12-20T15:13:42.445Z,20.10
2022-12-20T15:16:21.318Z,18.50
2022-12-20T15:18:49.349Z,19.87
2022-12-20T15:21:19.736Z,20.70
2022-12-20T15:23:49.180Z,20.33
2022-12-20T15:26:17.313Z,20.00
2022-12-20T15:28:44.062Z,19.50
2022-12-20T15:31:15.680Z,18.83
2022-12-20T15:33:43.513Z,19.50
2022-12-20T15:36:18.615Z,20.20
2022-12-20T15:39:15.781Z,19.57
2022-12-20T15:41:34.022Z,20.70
2022-12-20T15:44:05.692Z,17.90
2022-12-20T15:46:32.993Z,19.70
2022-12-20T15:49:00.202Z,18.93
2022-12-20T15:51:31.402Z,20.33
2022-12-20T15:54:00.437Z,19.73
2022-12-20T15:56:28.429Z,19.07
2022-12-20T15:58:55.859Z,21.40
2022-12-20T16:01:23.935Z,21.20
2022-12-20T16:03:51.093Z,21.27
2022-12-20T16:06:17.979Z,22.47
2022-12-20T16:08:44.804Z,19.37
2022-12-20T16:11:28.080Z,20.77
2022-12-20T16:13:58.918Z,20.40
2022-12-20T16:16:45.642Z,20.53
2022-12-20T16:19:12.446Z,21.17
2022-12-20T16:21:46.191Z,19.67
2022-12-20T16:24:14.688Z,19.57
2022-12-20T16:26:42.824Z,20.37
2022-12-20T16:29:09.665Z,19.13
2022-12-20T16:31:38.235Z,21.40
2022-12-20T16:34:07.475Z,19.07
2022-12-20T16:36:34.454Z,20.57
2022-12-20T16:39:01.288Z,19.57
2022-12-20T16:41:30.584Z,20.53
2022-12-20T16:43:59.960Z,21.00
2022-12-20T16:46:30.197Z,20.20
2022-12-20T16:48:59.130Z,21.93
2022-12-20T16:51:39.323Z,20.90
2022-12-20T16:54:21.726Z,19.93
2022-12-20T16:56:56.128Z,21.23
2022-12-20T16:59:27.020Z,20.43
2022-12-20T17:01:56.897Z,20.40
2022-12-20T17:04:26.894Z,20.57
2022-12-20T17:06:53.763Z,20.63
2022-12-20T17:09:20.592Z,20.20
2022-12-20T17:11:50.191Z,20.90
2022-12-20T17:14:18.430Z,20.70
2022-12-20T17:16:45.236Z,21.37
2022-12-20T17:19:13.025Z,23.40
2022-12-20T17:24:31.487Z,21.00
2022-12-20T17:26:58.681Z,20.77
2022-12-20T17:29:25.892Z,19.97
2022-12-20T17:31:52.899Z,21.50
2022-12-20T17:34:24.810Z,20.87
2022-12-20T17:36:54.310Z,22.73
2022-12-20T17:39:21.984Z,22.60
2022-12-20T17:41:52.080Z,24.53
2022-12-20T17:44:28.611Z,19.37
2022-12-20T17:46:57.946Z,21.97
2022-12-20T17:49:25.038Z,21.47
2022-12-20T17:51:52.355Z,21.10
2022-12-20T17:54:21.719Z,20.63
2022-12-20T17:56:49.736Z,21.17
2022-12-20T17:59:16.732Z,21.77
2022-12-20T18:01:45.251Z,21.23
2022-12-20T18:04:15.542Z,21.83
2022-12-20T18:06:45.290Z,21.10
2022-12-20T18:09:16.632Z,21.10
2022-12-20T18:11:44.669Z,20.97
2022-12-20T18:14:12.375Z,19.97
2022-12-20T18:16:39.624Z,19.17
2022-12-20T18:19:07.282Z,18.93
2022-12-20T18:21:34.779Z,19.83
2022-12-20T18:24:01.512Z,20.60
2022-12-20T18:26:30.474Z,21.47
2022-12-20T18:29:00.416Z,20.23
2022-12-20T18:31:29.895Z,20.53
2022-12-20T18:33:58.845Z,19.13
2022-12-20T18:36:28.595Z,19.40
2022-12-20T18:38:57.814Z,18.63
2022-12-20T18:41:28.809Z,20.27
2022-12-20T18:44:01.095Z,20.20
2022-12-20T18:46:28.670Z,19.77
2022-12-20T18:48:57.631Z,19.23
2022-12-20T18:51:27.119Z,20.97
2022-12-20T18:53:55.796Z,19.30
2022-12-20T18:56:25.312Z,19.70
2022-12-20T18:58:52.722Z,19.03
2022-12-20T19:01:25.068Z,18.03
2022-12-20T19:03:52.355Z,19.23
2022-12-20T19:06:19.989Z,20.90
2022-12-20T19:08:47.528Z,19.97
2022-12-20T19:11:17.166Z,21.37
2022-12-20T19:13:45.340Z,21.37
2022-12-20T19:16:15.637Z,18.93
2022-12-20T19:18:43.841Z,20.47
2022-12-20T19:21:13.510Z,19.27
2022-12-20T19:23:41.871Z,20.70
2022-12-20T19:26:11.813Z,20.67
2022-12-20T19:28:39.577Z,20.13
2022-12-20T19:31:08.716Z,20.33
2022-12-20T19:33:43.811Z,20.40
2022-12-20T19:36:12.611Z,21.50
2022-12-20T19:38:53.342Z,20.27
2022-12-20T19:41:22.575Z,21.33
2022-12-20T19:43:51.595Z,21.47
2022-12-20T19:46:28.429Z,21.10
2022-12-20T19:48:57.426Z,21.63
2022-12-20T19:51:25.833Z,21.10
2022-12-20T19:53:53.850Z,20.47
2022-12-20T19:56:25.193Z,20.97
2022-12-20T19:58:52.577Z,22.10
2022-12-20T20:01:21.376Z,19.37
2022-12-20T20:03:48.618Z,19.67
2022-12-20T20:06:15.527Z,21.60
2022-12-20T20:08:42.798Z,22.07
2022-12-20T20:11:11.630Z,21.30
2022-12-20T20:13:39.345Z,20.90
2022-12-20T20:16:07.280Z,19.67
2022-12-20T20:18:39.157Z,20.67
2022-12-20T20:21:12.369Z,20.60
2022-12-20T20:23:39.726Z,20.30
2022-12-20T20:26:09.774Z,20.33
2022-12-20T20:28:43.641Z,19.03
2022-12-20T20:31:13.742Z,20.27
2022-12-20T20:33:40.762Z,21.33
2022-12-20T20:36:08.200Z,19.60
2022-12-20T20:38:35.417Z,19.07
2022-12-20T20:41:02.567Z,18.60
2022-12-20T20:43:29.840Z,18.43
2022-12-20T20:45:57.214Z,18.80
2022-12-20T20:48:24.091Z,20.87
2022-12-20T20:50:50.953Z,19.63
2022-12-20T20:53:17.780Z,22.30
2022-12-20T20:55:44.886Z,18.90
2022-12-20T20:58:11.758Z,20.27
2022-12-20T21:00:38.919Z,19.43
2022-12-20T21:03:05.919Z,19.57
2022-12-20T21:06:22.350Z,18.33
2022-12-20T21:08:21.860Z,19.83
2022-12-20T21:10:51.485Z,20.63
2022-12-20T21:13:18.639Z,19.63
2022-12-20T21:15:46.540Z,19.30
2022-12-20T21:18:14.183Z,21.13
2022-12-20T21:20:41.009Z,19.37
2022-12-20T21:23:07.789Z,20.53
2022-12-20T21:25:34.557Z,19.40
2022-12-20T21:28:01.331Z,20.73
2022-12-20T21:30:30.580Z,19.47
2022-12-20T21:32:57.340Z,20.33
2022-12-20T21:35:24.160Z,19.57
2022-12-20T21:37:51.206Z,19.23
2022-12-20T21:40:18.309Z,20.27
2022-12-20T21:42:45.564Z,20.07
2022-12-20T21:45:12.312Z,19.90
2022-12-20T21:47:39.092Z,18.23
2022-12-20T21:50:06.723Z,18.60
2022-12-20T21:52:33.533Z,20.60
2022-12-20T21:55:00.288Z,17.90
2022-12-20T21:57:26.995Z,18.47
2022-12-20T21:59:53.957Z,19.10
2022-12-20T22:02:20.790Z,18.47
2022-12-20T22:04:48.081Z,18.77
2022-12-20T22:07:15.318Z,19.07
2022-12-20T22:09:42.092Z,20.80
2022-12-20T22:12:09.237Z,19.20
2022-12-20T22:14:36.002Z,18.67
2022-12-20T22:17:02.780Z,18.13
2022-12-20T22:19:29.538Z,18.40
2022-12-20T22:21:58.495Z,18.37
2022-12-20T22:24:25.588Z,19.67
2022-12-20T22:26:52.339Z,19.73
2022-12-20T22:29:20.344Z,18.60
2022-12-20T22:31:47.189Z,18.13
2022-12-20T22:34:14.070Z,19.47
2022-12-20T22:36:40.874Z,18.70
2022-12-20T22:39:08.784Z,18.87
2022-12-20T22:41:35.850Z,19.93
2022-12-20T22:44:03.444Z,19.73
2022-12-20T22:49:17.575Z,20.67
2022-12-20T22:51:51.282Z,21.07
2022-12-20T22:54:26.040Z,20.30
2022-12-20T22:56:52.869Z,21.23
2022-12-20T22:59:19.736Z,20.10
2022-12-20T23:01:47.074Z,21.23
2022-12-20T23:04:13.960Z,20.63
2022-12-20T23:06:40.890Z,21.07
2022-12-20T23:09:07.655Z,20.67
2022-12-20T23:11:52.980Z,19.57
2022-12-20T23:14:40.512Z,20.97
2022-12-20T23:17:10.215Z,18.47
2022-12-20T23:19:55.684Z,17.10
2022-12-20T23:22:40.120Z,19.87
2022-12-20T23:25:15.787Z,18.20
2022-12-20T23:27:44.791Z,18.40
2022-12-20T23:30:14.819Z,18.83
2022-12-20T23:32:44.737Z,18.27
2022-12-20T23:35:16.464Z,19.70
2022-12-20T23:37:45.446Z,18.87
2022-12-20T23:40:13.232Z,18.77
2022-12-20T23:42:40.226Z,18.80
2022-12-20T23:45:07.755Z,20.00
2022-12-20T23:47:34.804Z,18.93
2022-12-20T23:50:03.233Z,19.37
2022-12-20T23:52:30.289Z,18.50
2022-12-20T23:54:57.124Z,19.70
2022-12-20T23:57:23.990Z,20.40
2022-12-20T23:59:50.782Z,18.50
